sensor_id;sensor_type;location;lat;lon;timestamp;P1;durP1;ratioP1;P2;durP2;ratioP2
82511;SDS011;72152;65.012;25.464;2024-01-15T00:03:03;0.60;;;0.20;;
82511;SDS011;72152;65.012;25.464;2024-01-15T00:06:15;0.50;;;0.20;;
82511;SDS011;72152;65.012;25.464;2024-01-15T00:09:30;0.00;;;0.00;;
82511;SDS011;72152;65.012;25.464;2024-01-15T00:12:35;0.70;;;0.00;;
82511;SDS011;72152;65.012;25.464;2024-01-15T00:15:45;0.00;;;0.00;;
82511;SDS011;72152;65.012;25.464;2024-01-15T00:18:54;0.30;;;0.00;;
82511;SDS011;72152;65.012;25.464;2024-01-15T00:22:06;0.30;;;0.10;;
82511;SDS011;72152;65.012;25.464;2024-01-15T00:25:12;0.10;;;0.10;;
82511;SDS011;72152;65.012;25.464;2024-01-15T00:28:21;0.70;;;0.30;;
82511;SDS011;72152;65.012;25.464;2024-01-15T00:31:26;1.10;;;0.30;;
82511;SDS011;72152;65.012;25.464;2024-01-15T00:37:49;0.20;;;0.10;;
82511;SDS011;72152;65.012;25.464;2024-01-15T00:41:03;0.20;;;0.00;;
82511;SDS011;72152;65.012;25.464;2024-01-15T00:44:08;0.30;;;0.00;;
82511;SDS011;72152;65.012;25.464;2024-01-15T00:47:12;0.10;;;0.00;;
82511;SDS011;72152;65.012;25.464;2024-01-15T00:50:21;1.70;;;0.20;;
82511;SDS011;72152;65.012;25.464;2024-01-15T00:53:30;0.40;;;0.10;;
82511;SDS011;72152;65.012;25.464;2024-01-15T00:56:40;0.20;;;0.10;;
82511;SDS011;72152;65.012;25.464;2024-01-15T00:59:49;0.10;;;0.10;;
82511;SDS011;72152;65.012;25.464;2024-01-15T01:02:57;0.40;;;0.30;;
82511;SDS011;72152;65.012;25.464;2024-01-15T01:06:05;0.10;;;0.10;;
82511;SDS011;72152;65.012;25.464;2024-01-15T01:09:11;0.50;;;0.20;;
82511;SDS011;72152;65.012;25.464;2024-01-15T01:12:17;0.80;;;0.40;;
82511;SDS011;72152;65.012;25.464;2024-01-15T01:15:27;0.30;;;0.20;;
82511;SDS011;72152;65.012;25.464;2024-01-15T01:18:39;0.60;;;0.30;;
82511;SDS011;72152;65.012;25.464;2024-01-15T01:24:51;0.10;;;0.10;;
82511;SDS011;72152;65.012;25.464;2024-01-15T01:28:09;4.00;;;0.20;;
82511;SDS011;72152;65.012;25.464;2024-01-15T01:31:14;0.60;;;0.20;;
82511;SDS011;72152;65.012;25.464;2024-01-15T01:34:23;0.00;;;0.00;;
82511;SDS011;72152;65.012;25.464;2024-01-15T01:37:34;0.30;;;0.10;;
82511;SDS011;72152;65.012;25.464;2024-01-15T01:40:38;1.10;;;0.30;;
82511;SDS011;72152;65.012;25.464;2024-01-15T01:43:45;0.60;;;0.30;;
82511;SDS011;72152;65.012;25.464;2024-01-15T01:46:53;1.30;;;0.30;;
82511;SDS011;72152;65.012;25.464;2024-01-15T01:50:01;0.50;;;0.40;;
82511;SDS011;72152;65.012;25.464;2024-01-15T01:53:09;0.30;;;0.20;;
82511;SDS011;72152;65.012;25.464;2024-01-15T01:56:18;0.10;;;0.10;;
82511;SDS011;72152;65.012;25.464;2024-01-15T01:59:22;0.40;;;0.20;;
82511;SDS011;72152;65.012;25.464;2024-01-15T02:02:33;0.20;;;0.00;;
82511;SDS011;72152;65.012;25.464;2024-01-15T02:05:40;0.70;;;0.20;;
82511;SDS011;72152;65.012;25.464;2024-01-15T02:08:48;2.50;;;0.20;;
82511;SDS011;72152;65.012;25.464;2024-01-15T02:11:57;0.10;;;0.10;;
82511;SDS011;72152;65.012;25.464;2024-01-15T02:15:04;0.40;;;0.30;;
82511;SDS011;72152;65.012;25.464;2024-01-15T02:18:17;0.20;;;0.20;;
82511;SDS011;72152;65.012;25.464;2024-01-15T02:21:26;0.70;;;0.20;;
82511;SDS011;72152;65.012;25.464;2024-01-15T02:24:36;0.80;;;0.40;;
82511;SDS011;72152;65.012;25.464;2024-01-15T02:27:43;2.10;;;0.70;;
82511;SDS011;72152;65.012;25.464;2024-01-15T02:30:53;1.20;;;0.70;;
82511;SDS011;72152;65.012;25.464;2024-01-15T02:33:59;0.60;;;0.30;;
82511;SDS011;72152;65.012;25.464;2024-01-15T02:37:06;0.40;;;0.20;;
82511;SDS011;72152;65.012;25.464;2024-01-15T02:43:26;1.60;;;0.60;;
82511;SDS011;72152;65.012;25.464;2024-01-15T02:46:34;0.90;;;0.30;;
82511;SDS011;72152;65.012;25.464;2024-01-15T02:49:38;2.60;;;0.60;;
82511;SDS011;72152;65.012;25.464;2024-01-15T02:52:46;1.10;;;0.30;;
82511;SDS011;72152;65.012;25.464;2024-01-15T02:55:50;0.30;;;0.20;;
82511;SDS011;72152;65.012;25.464;2024-01-15T02:59:01;0.60;;;0.40;;
82511;SDS011;72152;65.012;25.464;2024-01-15T03:02:10;1.40;;;0.30;;
82511;SDS011;72152;65.012;25.464;2024-01-15T03:05:18;0.00;;;0.00;;
82511;SDS011;72152;65.012;25.464;2024-01-15T03:08:28;1.40;;;0.20;;
82511;SDS011;72152;65.012;25.464;2024-01-15T03:11:43;0.40;;;0.20;;
82511;SDS011;72152;65.012;25.464;2024-01-15T03:14:51;0.40;;;0.30;;
82511;SDS011;72152;65.012;25.464;2024-01-15T03:18:00;1.70;;;0.40;;
82511;SDS011;72152;65.012;25.464;2024-01-15T03:21:10;1.10;;;0.20;;
82511;SDS011;72152;65.012;25.464;2024-01-15T03:24:19;2.10;;;0.50;;
82511;SDS011;72152;65.012;25.464;2024-01-15T03:27:23;0.90;;;0.50;;
82511;SDS011;72152;65.012;25.464;2024-01-15T03:30:33;0.50;;;0.40;;
82511;SDS011;72152;65.012;25.464;2024-01-15T03:33:41;0.70;;;0.10;;
82511;SDS011;72152;65.012;25.464;2024-01-15T03:36:48;0.10;;;0.10;;
82511;SDS011;72152;65.012;25.464;2024-01-15T03:39:51;1.00;;;0.60;;
82511;SDS011;72152;65.012;25.464;2024-01-15T03:42:59;1.30;;;0.10;;
82511;SDS011;72152;65.012;25.464;2024-01-15T03:46:12;0.60;;;0.30;;
82511;SDS011;72152;65.012;25.464;2024-01-15T03:49:24;1.90;;;0.50;;
82511;SDS011;72152;65.012;25.464;2024-01-15T03:52:33;2.00;;;0.10;;
82511;SDS011;72152;65.012;25.464;2024-01-15T03:55:42;0.10;;;0.10;;
82511;SDS011;72152;65.012;25.464;2024-01-15T03:58:52;0.40;;;0.20;;
82511;SDS011;72152;65.012;25.464;2024-01-15T04:05:16;0.70;;;0.30;;
82511;SDS011;72152;65.012;25.464;2024-01-15T04:08:26;0.10;;;0.10;;
82511;SDS011;72152;65.012;25.464;2024-01-15T04:11:27;1.50;;;0.20;;
82511;SDS011;72152;65.012;25.464;2024-01-15T04:14:35;0.50;;;0.20;;
82511;SDS011;72152;65.012;25.464;2024-01-15T04:17:42;1.30;;;0.40;;
82511;SDS011;72152;65.012;25.464;2024-01-15T04:20:54;0.20;;;0.10;;
82511;SDS011;72152;65.012;25.464;2024-01-15T04:24:07;0.30;;;0.20;;
82511;SDS011;72152;65.012;25.464;2024-01-15T04:27:13;1.50;;;0.00;;
82511;SDS011;72152;65.012;25.464;2024-01-15T04:30:24;0.00;;;0.00;;
82511;SDS011;72152;65.012;25.464;2024-01-15T04:33:30;0.20;;;0.20;;
82511;SDS011;72152;65.012;25.464;2024-01-15T04:36:42;0.20;;;0.10;;
82511;SDS011;72152;65.012;25.464;2024-01-15T04:39:51;0.70;;;0.20;;
82511;SDS011;72152;65.012;25.464;2024-01-15T04:43:02;1.30;;;0.10;;
82511;SDS011;72152;65.012;25.464;2024-01-15T04:46:10;0.50;;;0.30;;
82511;SDS011;72152;65.012;25.464;2024-01-15T04:49:15;0.80;;;0.20;;
82511;SDS011;72152;65.012;25.464;2024-01-15T04:52:20;0.80;;;0.20;;
82511;SDS011;72152;65.012;25.464;2024-01-15T04:55:29;0.00;;;0.00;;
82511;SDS011;72152;65.012;25.464;2024-01-15T04:58:38;0.20;;;0.20;;
82511;SDS011;72152;65.012;25.464;2024-01-15T05:04:44;0.20;;;0.20;;
82511;SDS011;72152;65.012;25.464;2024-01-15T05:07:48;0.80;;;0.20;;
82511;SDS011;72152;65.012;25.464;2024-01-15T05:14:14;0.30;;;0.20;;
82511;SDS011;72152;65.012;25.464;2024-01-15T05:17:19;0.30;;;0.20;;
82511;SDS011;72152;65.012;25.464;2024-01-15T05:20:23;0.60;;;0.20;;
82511;SDS011;72152;65.012;25.464;2024-01-15T05:23:33;0.20;;;0.00;;
82511;SDS011;72152;65.012;25.464;2024-01-15T05:26:43;0.90;;;0.30;;
82511;SDS011;72152;65.012;25.464;2024-01-15T05:29:47;10.60;;;4.10;;
82511;SDS011;72152;65.012;25.464;2024-01-15T05:32:51;20.80;;;5.50;;
82511;SDS011;72152;65.012;25.464;2024-01-15T05:35:50;2.20;;;1.00;;
82511;SDS011;72152;65.012;25.464;2024-01-15T05:38:52;1.00;;;0.50;;
82511;SDS011;72152;65.012;25.464;2024-01-15T05:41:56;0.40;;;0.30;;
82511;SDS011;72152;65.012;25.464;2024-01-15T05:45:00;0.20;;;0.10;;
82511;SDS011;72152;65.012;25.464;2024-01-15T05:48:11;0.20;;;0.20;;
82511;SDS011;72152;65.012;25.464;2024-01-15T05:51:16;23.70;;;6.20;;
82511;SDS011;72152;65.012;25.464;2024-01-15T05:54:24;11.80;;;4.00;;
82511;SDS011;72152;65.012;25.464;2024-01-15T05:57:28;1.80;;;0.60;;
82511;SDS011;72152;65.012;25.464;2024-01-15T06:00:35;0.30;;;0.20;;
82511;SDS011;72152;65.012;25.464;2024-01-15T06:03:45;1.10;;;0.60;;
82511;SDS011;72152;65.012;25.464;2024-01-15T06:06:58;0.50;;;0.20;;
82511;SDS011;72152;65.012;25.464;2024-01-15T06:10:08;1.50;;;0.40;;
82511;SDS011;72152;65.012;25.464;2024-01-15T06:13:26;0.20;;;0.10;;
82511;SDS011;72152;65.012;25.464;2024-01-15T06:16:35;1.10;;;0.30;;
82511;SDS011;72152;65.012;25.464;2024-01-15T06:19:48;0.80;;;0.40;;
82511;SDS011;72152;65.012;25.464;2024-01-15T06:22:58;0.40;;;0.10;;
82511;SDS011;72152;65.012;25.464;2024-01-15T06:26:07;0.60;;;0.20;;
82511;SDS011;72152;65.012;25.464;2024-01-15T06:29:15;6.10;;;1.70;;
82511;SDS011;72152;65.012;25.464;2024-01-15T06:32:26;1.50;;;0.70;;
82511;SDS011;72152;65.012;25.464;2024-01-15T06:35:32;0.90;;;0.30;;
82511;SDS011;72152;65.012;25.464;2024-01-15T06:38:45;0.60;;;0.40;;
82511;SDS011;72152;65.012;25.464;2024-01-15T06:48:31;2.70;;;0.60;;
82511;SDS011;72152;65.012;25.464;2024-01-15T06:54:36;0.10;;;0.10;;
82511;SDS011;72152;65.012;25.464;2024-01-15T06:57:52;0.20;;;0.10;;
82511;SDS011;72152;65.012;25.464;2024-01-15T07:01:05;0.60;;;0.10;;
82511;SDS011;72152;65.012;25.464;2024-01-15T07:04:13;0.50;;;0.30;;
82511;SDS011;72152;65.012;25.464;2024-01-15T07:07:17;0.50;;;0.30;;
82511;SDS011;72152;65.012;25.464;2024-01-15T07:10:26;0.80;;;0.30;;
82511;SDS011;72152;65.012;25.464;2024-01-15T07:13:28;1.10;;;0.50;;
82511;SDS011;72152;65.012;25.464;2024-01-15T07:16:42;0.60;;;0.30;;
82511;SDS011;72152;65.012;25.464;2024-01-15T07:19:51;3.40;;;0.60;;
82511;SDS011;72152;65.012;25.464;2024-01-15T07:22:54;1.40;;;0.50;;
82511;SDS011;72152;65.012;25.464;2024-01-15T07:26:00;0.80;;;0.30;;
82511;SDS011;72152;65.012;25.464;2024-01-15T07:29:10;1.70;;;0.40;;
82511;SDS011;72152;65.012;25.464;2024-01-15T07:32:17;6.50;;;1.70;;
82511;SDS011;72152;65.012;25.464;2024-01-15T07:35:29;2.00;;;0.30;;
82511;SDS011;72152;65.012;25.464;2024-01-15T07:38:37;1.00;;;0.60;;
82511;SDS011;72152;65.012;25.464;2024-01-15T07:41:49;0.30;;;0.30;;
82511;SDS011;72152;65.012;25.464;2024-01-15T07:44:52;0.60;;;0.40;;
82511;SDS011;72152;65.012;25.464;2024-01-15T07:48:00;0.20;;;0.20;;
82511;SDS011;72152;65.012;25.464;2024-01-15T07:51:10;0.30;;;0.30;;
82511;SDS011;72152;65.012;25.464;2024-01-15T07:57:19;0.70;;;0.40;;
82511;SDS011;72152;65.012;25.464;2024-01-15T08:00:28;0.50;;;0.40;;
82511;SDS011;72152;65.012;25.464;2024-01-15T08:03:39;1.30;;;0.60;;
82511;SDS011;72152;65.012;25.464;2024-01-15T08:06:55;1.00;;;0.50;;
82511;SDS011;72152;65.012;25.464;2024-01-15T08:10:08;1.70;;;0.50;;
82511;SDS011;72152;65.012;25.464;2024-01-15T08:13:17;1.20;;;0.40;;
82511;SDS011;72152;65.012;25.464;2024-01-15T08:16:27;0.40;;;0.20;;
82511;SDS011;72152;65.012;25.464;2024-01-15T08:19:33;1.00;;;0.30;;
82511;SDS011;72152;65.012;25.464;2024-01-15T08:22:47;0.90;;;0.20;;
82511;SDS011;72152;65.012;25.464;2024-01-15T08:25:53;1.90;;;0.90;;
82511;SDS011;72152;65.012;25.464;2024-01-15T08:29:02;4.20;;;1.00;;
82511;SDS011;72152;65.012;25.464;2024-01-15T08:32:15;1.60;;;0.80;;
82511;SDS011;72152;65.012;25.464;2024-01-15T08:35:25;1.30;;;0.50;;
82511;SDS011;72152;65.012;25.464;2024-01-15T08:38:34;1.70;;;0.60;;
82511;SDS011;72152;65.012;25.464;2024-01-15T08:41:37;0.50;;;0.20;;
82511;SDS011;72152;65.012;25.464;2024-01-15T08:44:46;2.20;;;0.70;;
82511;SDS011;72152;65.012;25.464;2024-01-15T08:47:55;1.70;;;0.80;;
82511;SDS011;72152;65.012;25.464;2024-01-15T08:51:02;1.00;;;0.50;;
82511;SDS011;72152;65.012;25.464;2024-01-15T08:54:13;2.00;;;0.70;;
82511;SDS011;72152;65.012;25.464;2024-01-15T08:57:20;1.80;;;0.70;;
82511;SDS011;72152;65.012;25.464;2024-01-15T09:00:29;0.70;;;0.30;;
82511;SDS011;72152;65.012;25.464;2024-01-15T09:03:37;1.30;;;0.80;;
82511;SDS011;72152;65.012;25.464;2024-01-15T09:06:54;1.30;;;0.60;;
82511;SDS011;72152;65.012;25.464;2024-01-15T09:10:02;2.10;;;0.60;;
82511;SDS011;72152;65.012;25.464;2024-01-15T09:13:23;3.50;;;0.70;;
82511;SDS011;72152;65.012;25.464;2024-01-15T09:16:30;1.40;;;0.40;;
82511;SDS011;72152;65.012;25.464;2024-01-15T09:19:39;1.30;;;0.50;;
82511;SDS011;72152;65.012;25.464;2024-01-15T09:22:44;1.80;;;0.50;;
82511;SDS011;72152;65.012;25.464;2024-01-15T09:25:53;0.50;;;0.40;;
82511;SDS011;72152;65.012;25.464;2024-01-15T09:29:04;1.80;;;0.70;;
82511;SDS011;72152;65.012;25.464;2024-01-15T09:32:14;0.90;;;0.40;;
82511;SDS011;72152;65.012;25.464;2024-01-15T09:35:28;1.30;;;0.70;;
82511;SDS011;72152;65.012;25.464;2024-01-15T09:38:39;1.40;;;0.70;;
82511;SDS011;72152;65.012;25.464;2024-01-15T09:41:51;0.30;;;0.20;;
82511;SDS011;72152;65.012;25.464;2024-01-15T09:45:00;1.10;;;0.60;;
82511;SDS011;72152;65.012;25.464;2024-01-15T09:51:36;2.30;;;0.70;;
82511;SDS011;72152;65.012;25.464;2024-01-15T09:54:48;5.70;;;1.80;;
82511;SDS011;72152;65.012;25.464;2024-01-15T09:57:57;3.50;;;1.10;;
82511;SDS011;72152;65.012;25.464;2024-01-15T10:01:10;2.20;;;1.00;;
82511;SDS011;72152;65.012;25.464;2024-01-15T10:04:16;2.20;;;1.30;;
82511;SDS011;72152;65.012;25.464;2024-01-15T10:07:26;3.70;;;1.30;;
82511;SDS011;72152;65.012;25.464;2024-01-15T10:10:46;1.30;;;0.90;;
82511;SDS011;72152;65.012;25.464;2024-01-15T10:13:59;2.90;;;1.10;;
82511;SDS011;72152;65.012;25.464;2024-01-15T10:20:25;1.20;;;0.60;;
82511;SDS011;72152;65.012;25.464;2024-01-15T10:23:41;0.90;;;0.40;;
82511;SDS011;72152;65.012;25.464;2024-01-15T10:33:06;1.10;;;0.60;;
82511;SDS011;72152;65.012;25.464;2024-01-15T10:42:25;2.50;;;0.70;;
82511;SDS011;72152;65.012;25.464;2024-01-15T10:48:33;0.90;;;0.50;;
82511;SDS011;72152;65.012;25.464;2024-01-15T10:51:36;2.90;;;0.90;;
82511;SDS011;72152;65.012;25.464;2024-01-15T10:54:51;4.00;;;1.00;;
82511;SDS011;72152;65.012;25.464;2024-01-15T10:57:53;9.10;;;2.80;;
82511;SDS011;72152;65.012;25.464;2024-01-15T11:01:07;2.70;;;1.10;;
82511;SDS011;72152;65.012;25.464;2024-01-15T11:04:16;6.00;;;1.20;;
82511;SDS011;72152;65.012;25.464;2024-01-15T11:07:21;3.10;;;1.30;;
82511;SDS011;72152;65.012;25.464;2024-01-15T11:10:46;4.80;;;1.30;;
82511;SDS011;72152;65.012;25.464;2024-01-15T11:13:55;1.50;;;0.90;;
82511;SDS011;72152;65.012;25.464;2024-01-15T11:17:02;1.50;;;0.50;;
82511;SDS011;72152;65.012;25.464;2024-01-15T11:20:08;3.00;;;1.20;;
82511;SDS011;72152;65.012;25.464;2024-01-15T11:23:16;5.20;;;1.50;;
82511;SDS011;72152;65.012;25.464;2024-01-15T11:26:51;4.00;;;1.20;;
82511;SDS011;72152;65.012;25.464;2024-01-15T11:33:14;4.50;;;1.40;;
82511;SDS011;72152;65.012;25.464;2024-01-15T11:37:07;2.30;;;1.10;;
82511;SDS011;72152;65.012;25.464;2024-01-15T11:40:18;1.60;;;0.70;;
82511;SDS011;72152;65.012;25.464;2024-01-15T11:43:36;2.60;;;1.00;;
82511;SDS011;72152;65.012;25.464;2024-01-15T11:46:51;2.60;;;1.20;;
82511;SDS011;72152;65.012;25.464;2024-01-15T11:50:06;1.20;;;0.70;;
82511;SDS011;72152;65.012;25.464;2024-01-15T11:53:08;3.00;;;1.30;;
82511;SDS011;72152;65.012;25.464;2024-01-15T11:56:22;3.80;;;1.20;;
82511;SDS011;72152;65.012;25.464;2024-01-15T11:59:32;2.00;;;0.90;;
82511;SDS011;72152;65.012;25.464;2024-01-15T12:02:38;1.80;;;0.60;;
82511;SDS011;72152;65.012;25.464;2024-01-15T12:05:44;3.10;;;1.60;;
82511;SDS011;72152;65.012;25.464;2024-01-15T12:08:58;4.20;;;1.20;;
82511;SDS011;72152;65.012;25.464;2024-01-15T12:12:16;2.70;;;1.20;;
82511;SDS011;72152;65.012;25.464;2024-01-15T12:15:32;1.50;;;0.60;;
82511;SDS011;72152;65.012;25.464;2024-01-15T12:18:40;4.30;;;0.80;;
82511;SDS011;72152;65.012;25.464;2024-01-15T12:21:45;2.30;;;1.00;;
82511;SDS011;72152;65.012;25.464;2024-01-15T12:25:02;3.30;;;1.30;;
82511;SDS011;72152;65.012;25.464;2024-01-15T12:28:12;3.40;;;1.20;;
82511;SDS011;72152;65.012;25.464;2024-01-15T12:31:20;4.30;;;1.10;;
82511;SDS011;72152;65.012;25.464;2024-01-15T12:34:29;3.30;;;0.80;;
82511;SDS011;72152;65.012;25.464;2024-01-15T12:37:32;4.80;;;1.30;;
82511;SDS011;72152;65.012;25.464;2024-01-15T12:40:43;3.60;;;1.20;;
82511;SDS011;72152;65.012;25.464;2024-01-15T12:43:56;4.40;;;1.80;;
82511;SDS011;72152;65.012;25.464;2024-01-15T12:47:09;2.30;;;0.80;;
82511;SDS011;72152;65.012;25.464;2024-01-15T12:50:18;2.10;;;1.10;;
82511;SDS011;72152;65.012;25.464;2024-01-15T12:53:26;2.70;;;1.20;;
82511;SDS011;72152;65.012;25.464;2024-01-15T12:56:33;2.30;;;1.10;;
82511;SDS011;72152;65.012;25.464;2024-01-15T12:59:42;2.30;;;0.80;;
82511;SDS011;72152;65.012;25.464;2024-01-15T13:02:45;0.50;;;0.50;;
82511;SDS011;72152;65.012;25.464;2024-01-15T13:05:53;1.60;;;0.90;;
82511;SDS011;72152;65.012;25.464;2024-01-15T13:09:04;4.70;;;1.40;;
82511;SDS011;72152;65.012;25.464;2024-01-15T13:12:15;2.70;;;1.20;;
82511;SDS011;72152;65.012;25.464;2024-01-15T13:15:22;4.60;;;1.10;;
82511;SDS011;72152;65.012;25.464;2024-01-15T13:18:26;3.50;;;1.00;;
82511;SDS011;72152;65.012;25.464;2024-01-15T13:21:30;1.10;;;0.60;;
82511;SDS011;72152;65.012;25.464;2024-01-15T13:24:37;1.10;;;0.60;;
82511;SDS011;72152;65.012;25.464;2024-01-15T13:27:46;3.20;;;1.10;;
82511;SDS011;72152;65.012;25.464;2024-01-15T13:30:56;1.40;;;0.90;;
82511;SDS011;72152;65.012;25.464;2024-01-15T13:34:05;2.80;;;1.10;;
82511;SDS011;72152;65.012;25.464;2024-01-15T13:37:15;1.40;;;0.90;;
82511;SDS011;72152;65.012;25.464;2024-01-15T13:40:24;2.90;;;1.10;;
82511;SDS011;72152;65.012;25.464;2024-01-15T13:43:29;2.80;;;0.90;;
82511;SDS011;72152;65.012;25.464;2024-01-15T13:46:46;3.70;;;1.20;;
82511;SDS011;72152;65.012;25.464;2024-01-15T13:49:53;3.90;;;1.20;;
82511;SDS011;72152;65.012;25.464;2024-01-15T13:52:56;5.30;;;1.30;;
82511;SDS011;72152;65.012;25.464;2024-01-15T13:56:03;3.60;;;1.20;;
82511;SDS011;72152;65.012;25.464;2024-01-15T13:59:18;3.80;;;1.00;;
82511;SDS011;72152;65.012;25.464;2024-01-15T14:02:24;2.20;;;0.90;;
82511;SDS011;72152;65.012;25.464;2024-01-15T14:05:35;3.90;;;1.50;;
82511;SDS011;72152;65.012;25.464;2024-01-15T14:08:43;3.10;;;0.90;;
82511;SDS011;72152;65.012;25.464;2024-01-15T14:11:53;2.10;;;0.80;;
82511;SDS011;72152;65.012;25.464;2024-01-15T14:15:04;2.80;;;1.10;;
82511;SDS011;72152;65.012;25.464;2024-01-15T14:18:16;1.60;;;0.70;;
82511;SDS011;72152;65.012;25.464;2024-01-15T14:21:24;2.50;;;1.00;;
82511;SDS011;72152;65.012;25.464;2024-01-15T14:24:33;2.50;;;0.70;;
82511;SDS011;72152;65.012;25.464;2024-01-15T14:27:45;2.50;;;1.10;;
82511;SDS011;72152;65.012;25.464;2024-01-15T14:30:58;2.50;;;0.70;;
82511;SDS011;72152;65.012;25.464;2024-01-15T14:34:07;2.00;;;0.90;;
82511;SDS011;72152;65.012;25.464;2024-01-15T14:37:12;2.40;;;1.10;;
82511;SDS011;72152;65.012;25.464;2024-01-15T14:40:20;1.00;;;0.60;;
82511;SDS011;72152;65.012;25.464;2024-01-15T14:43:20;3.60;;;1.20;;
82511;SDS011;72152;65.012;25.464;2024-01-15T14:46:28;2.90;;;1.10;;
82511;SDS011;72152;65.012;25.464;2024-01-15T14:49:37;5.40;;;1.50;;
82511;SDS011;72152;65.012;25.464;2024-01-15T14:52:41;1.90;;;0.90;;
82511;SDS011;72152;65.012;25.464;2024-01-15T14:55:48;3.10;;;1.30;;
82511;SDS011;72152;65.012;25.464;2024-01-15T14:58:53;4.80;;;1.30;;
82511;SDS011;72152;65.012;25.464;2024-01-15T15:02:04;2.10;;;1.10;;
82511;SDS011;72152;65.012;25.464;2024-01-15T15:05:09;4.80;;;1.10;;
82511;SDS011;72152;65.012;25.464;2024-01-15T15:08:17;3.30;;;1.30;;
82511;SDS011;72152;65.012;25.464;2024-01-15T15:11:26;3.80;;;1.30;;
82511;SDS011;72152;65.012;25.464;2024-01-15T15:14:34;3.10;;;1.30;;
82511;SDS011;72152;65.012;25.464;2024-01-15T15:17:39;7.10;;;1.00;;
82511;SDS011;72152;65.012;25.464;2024-01-15T15:20:46;2.40;;;1.30;;
82511;SDS011;72152;65.012;25.464;2024-01-15T15:23:56;3.70;;;1.40;;
82511;SDS011;72152;65.012;25.464;2024-01-15T15:26:58;3.70;;;1.50;;
82511;SDS011;72152;65.012;25.464;2024-01-15T15:30:02;3.10;;;1.20;;
82511;SDS011;72152;65.012;25.464;2024-01-15T15:36:15;5.20;;;1.20;;
82511;SDS011;72152;65.012;25.464;2024-01-15T15:39:32;6.60;;;1.20;;
82511;SDS011;72152;65.012;25.464;2024-01-15T15:42:37;2.00;;;1.00;;
82511;SDS011;72152;65.012;25.464;2024-01-15T15:45:46;3.20;;;1.10;;
82511;SDS011;72152;65.012;25.464;2024-01-15T15:48:56;4.40;;;1.50;;
82511;SDS011;72152;65.012;25.464;2024-01-15T15:52:01;4.20;;;1.70;;
82511;SDS011;72152;65.012;25.464;2024-01-15T15:55:17;4.70;;;1.80;;
82511;SDS011;72152;65.012;25.464;2024-01-15T15:58:38;5.30;;;1.70;;
82511;SDS011;72152;65.012;25.464;2024-01-15T16:01:48;4.20;;;1.80;;
82511;SDS011;72152;65.012;25.464;2024-01-15T16:04:57;4.10;;;1.60;;
82511;SDS011;72152;65.012;25.464;2024-01-15T16:14:09;5.40;;;1.80;;
82511;SDS011;72152;65.012;25.464;2024-01-15T16:17:11;4.80;;;2.00;;
82511;SDS011;72152;65.012;25.464;2024-01-15T16:23:33;4.20;;;1.50;;
82511;SDS011;72152;65.012;25.464;2024-01-15T16:26:42;4.10;;;1.60;;
82511;SDS011;72152;65.012;25.464;2024-01-15T16:29:48;7.50;;;1.60;;
82511;SDS011;72152;65.012;25.464;2024-01-15T16:32:56;6.20;;;1.90;;
82511;SDS011;72152;65.012;25.464;2024-01-15T16:36:06;5.40;;;1.70;;
82511;SDS011;72152;65.012;25.464;2024-01-15T16:39:16;5.20;;;2.10;;
82511;SDS011;72152;65.012;25.464;2024-01-15T16:42:19;4.30;;;1.60;;
82511;SDS011;72152;65.012;25.464;2024-01-15T16:45:19;3.70;;;1.70;;
82511;SDS011;72152;65.012;25.464;2024-01-15T16:48:33;3.90;;;1.80;;
82511;SDS011;72152;65.012;25.464;2024-01-15T16:51:42;5.50;;;2.10;;
82511;SDS011;72152;65.012;25.464;2024-01-15T16:54:50;9.00;;;2.00;;
82511;SDS011;72152;65.012;25.464;2024-01-15T16:57:57;2.30;;;1.40;;
82511;SDS011;72152;65.012;25.464;2024-01-15T17:01:10;2.70;;;1.40;;
82511;SDS011;72152;65.012;25.464;2024-01-15T17:04:12;5.20;;;1.30;;
82511;SDS011;72152;65.012;25.464;2024-01-15T17:07:12;6.50;;;2.00;;
82511;SDS011;72152;65.012;25.464;2024-01-15T17:10:17;2.60;;;1.30;;
82511;SDS011;72152;65.012;25.464;2024-01-15T17:16:43;5.50;;;1.20;;
82511;SDS011;72152;65.012;25.464;2024-01-15T17:19:48;6.40;;;1.70;;
82511;SDS011;72152;65.012;25.464;2024-01-15T17:23:00;2.00;;;0.90;;
82511;SDS011;72152;65.012;25.464;2024-01-15T17:26:05;4.20;;;1.60;;
82511;SDS011;72152;65.012;25.464;2024-01-15T17:29:13;2.80;;;0.90;;
82511;SDS011;72152;65.012;25.464;2024-01-15T17:32:20;1.50;;;1.00;;
82511;SDS011;72152;65.012;25.464;2024-01-15T17:35:32;2.60;;;1.30;;
82511;SDS011;72152;65.012;25.464;2024-01-15T17:38:31;2.70;;;1.00;;
82511;SDS011;72152;65.012;25.464;2024-01-15T17:41:38;1.70;;;0.50;;
82511;SDS011;72152;65.012;25.464;2024-01-15T17:44:46;1.90;;;1.00;;
82511;SDS011;72152;65.012;25.464;2024-01-15T17:47:57;3.30;;;1.40;;
82511;SDS011;72152;65.012;25.464;2024-01-15T17:51:05;7.80;;;2.70;;
82511;SDS011;72152;65.012;25.464;2024-01-15T17:54:18;3.30;;;1.40;;
82511;SDS011;72152;65.012;25.464;2024-01-15T17:57:24;3.80;;;1.40;;
82511;SDS011;72152;65.012;25.464;2024-01-15T18:00:34;3.10;;;1.10;;
82511;SDS011;72152;65.012;25.464;2024-01-15T18:03:44;1.90;;;0.90;;
82511;SDS011;72152;65.012;25.464;2024-01-15T18:06:50;2.40;;;1.00;;
82511;SDS011;72152;65.012;25.464;2024-01-15T18:10:01;2.00;;;0.70;;
82511;SDS011;72152;65.012;25.464;2024-01-15T18:13:12;3.00;;;1.30;;
82511;SDS011;72152;65.012;25.464;2024-01-15T18:16:17;4.20;;;0.80;;
82511;SDS011;72152;65.012;25.464;2024-01-15T18:19:22;2.20;;;0.90;;
82511;SDS011;72152;65.012;25.464;2024-01-15T18:22:25;1.50;;;0.50;;
82511;SDS011;72152;65.012;25.464;2024-01-15T18:25:35;1.80;;;0.90;;
82511;SDS011;72152;65.012;25.464;2024-01-15T18:31:54;2.60;;;0.70;;
82511;SDS011;72152;65.012;25.464;2024-01-15T18:35:02;2.80;;;1.20;;
82511;SDS011;72152;65.012;25.464;2024-01-15T18:38:15;2.20;;;1.20;;
82511;SDS011;72152;65.012;25.464;2024-01-15T18:44:40;2.10;;;1.20;;
82511;SDS011;72152;65.012;25.464;2024-01-15T18:47:53;2.50;;;0.80;;
82511;SDS011;72152;65.012;25.464;2024-01-15T18:50:57;1.70;;;0.80;;
82511;SDS011;72152;65.012;25.464;2024-01-15T18:54:04;4.30;;;1.40;;
82511;SDS011;72152;65.012;25.464;2024-01-15T18:57:11;6.90;;;2.60;;
82511;SDS011;72152;65.012;25.464;2024-01-15T19:00:24;2.30;;;0.90;;
82511;SDS011;72152;65.012;25.464;2024-01-15T19:03:34;2.00;;;1.10;;
82511;SDS011;72152;65.012;25.464;2024-01-15T19:06:38;3.30;;;1.10;;
82511;SDS011;72152;65.012;25.464;2024-01-15T19:09:44;2.70;;;0.50;;
82511;SDS011;72152;65.012;25.464;2024-01-15T19:12:52;2.90;;;0.80;;
82511;SDS011;72152;65.012;25.464;2024-01-15T19:16:00;3.10;;;1.10;;
82511;SDS011;72152;65.012;25.464;2024-01-15T19:19:03;2.40;;;0.90;;
82511;SDS011;72152;65.012;25.464;2024-01-15T19:22:09;2.90;;;0.90;;
82511;SDS011;72152;65.012;25.464;2024-01-15T19:25:15;2.80;;;0.90;;
82511;SDS011;72152;65.012;25.464;2024-01-15T19:28:25;2.80;;;1.00;;
82511;SDS011;72152;65.012;25.464;2024-01-15T19:31:33;2.70;;;1.00;;
82511;SDS011;72152;65.012;25.464;2024-01-15T19:34:46;2.00;;;0.80;;
82511;SDS011;72152;65.012;25.464;2024-01-15T19:37:58;2.80;;;1.30;;
82511;SDS011;72152;65.012;25.464;2024-01-15T19:41:02;2.20;;;0.90;;
82511;SDS011;72152;65.012;25.464;2024-01-15T19:44:07;3.60;;;1.10;;
82511;SDS011;72152;65.012;25.464;2024-01-15T19:47:20;3.40;;;1.30;;
82511;SDS011;72152;65.012;25.464;2024-01-15T19:50:18;2.30;;;1.00;;
82511;SDS011;72152;65.012;25.464;2024-01-15T19:53:26;1.80;;;0.90;;
82511;SDS011;72152;65.012;25.464;2024-01-15T19:56:29;3.40;;;1.20;;
82511;SDS011;72152;65.012;25.464;2024-01-15T19:59:36;1.90;;;0.60;;